createdAt,value
2023-02-17T00:00:09.441Z,1013.01
2023-02-17T00:01:09.596Z,1012.99
2023-02-17T00:02:09.773Z,1012.90
2023-02-17T00:03:09.809Z,1012.98
2023-02-17T00:04:09.949Z,1012.95
2023-02-17T00:05:10.099Z,1012.92
2023-02-17T00:06:10.232Z,1012.95
2023-02-17T00:07:10.369Z,1012.92
2023-02-17T00:08:10.497Z,1012.92
2023-02-17T00:09:12.113Z,1012.92
2023-02-17T00:10:10.788Z,1012.88
2023-02-17T00:11:11.000Z,1012.84
2023-02-17T00:12:11.092Z,1012.87
2023-02-17T00:13:11.240Z,1012.87
2023-02-17T00:14:11.337Z,1012.82
2023-02-17T00:15:11.476Z,1012.87
2023-02-17T00:16:11.698Z,1012.85
2023-02-17T00:17:11.757Z,1012.87
2023-02-17T00:18:11.852Z,1012.89
2023-02-17T00:19:12.007Z,1012.80
2023-02-17T00:20:12.150Z,1012.86
2023-02-17T00:21:12.286Z,1012.89
2023-02-17T00:22:12.437Z,1012.84
2023-02-17T00:23:12.596Z,1012.96
2023-02-17T00:24:12.735Z,1012.86
2023-02-17T00:25:12.866Z,1012.83
2023-02-17T00:26:13.052Z,1012.82
2023-02-17T00:27:13.164Z,1012.74
2023-02-17T00:28:13.335Z,1012.77
2023-02-17T00:29:13.488Z,1012.85
2023-02-17T00:30:13.651Z,1012.71
2023-02-17T00:31:13.802Z,1012.78
2023-02-17T00:32:13.921Z,1012.76
2023-02-17T00:33:14.022Z,1012.73
2023-02-17T00:34:14.150Z,1012.77
2023-02-17T00:35:14.353Z,1012.73
2023-02-17T00:36:14.489Z,1012.73
2023-02-17T00:37:14.658Z,1012.76
2023-02-17T00:38:14.738Z,1012.73
2023-02-17T00:39:14.876Z,1012.74
2023-02-17T00:40:15.019Z,1012.78
2023-02-17T00:41:15.140Z,1012.77
2023-02-17T00:42:15.224Z,1012.69
2023-02-17T00:43:15.360Z,1012.73
2023-02-17T00:44:15.508Z,1012.71
2023-02-17T00:45:15.609Z,1012.72
2023-02-17T00:46:15.737Z,1012.71
2023-02-17T00:47:15.880Z,1012.76
2023-02-17T00:48:16.023Z,1012.68
2023-02-17T00:49:16.114Z,1012.68
2023-02-17T00:50:16.249Z,1012.66
2023-02-17T00:51:16.443Z,1012.76
2023-02-17T00:52:16.560Z,1012.73
2023-02-17T00:53:16.730Z,1012.72
2023-02-17T00:54:16.848Z,1012.79
2023-02-17T00:55:16.999Z,1012.79
2023-02-17T00:56:17.168Z,1012.80
2023-02-17T00:57:17.326Z,1012.79
2023-02-17T00:58:17.413Z,1012.72
2023-02-17T00:59:17.562Z,1012.69
2023-02-17T01:00:17.674Z,1012.70
2023-02-17T01:01:17.780Z,1012.69
2023-02-17T01:02:17.884Z,1012.75
2023-02-17T01:03:18.021Z,1012.69
2023-02-17T01:04:18.178Z,1012.70
2023-02-17T01:05:18.268Z,1012.70
2023-02-17T01:06:18.401Z,1012.64
2023-02-17T01:07:18.550Z,1012.67
2023-02-17T01:08:18.637Z,1012.68
2023-02-17T01:09:18.789Z,1012.76
2023-02-17T01:10:18.881Z,1012.64
2023-02-17T01:11:18.990Z,1012.64
2023-02-17T01:12:19.088Z,1012.62
2023-02-17T01:13:19.229Z,1012.58
2023-02-17T01:14:19.349Z,1012.59
2023-02-17T01:15:19.457Z,1012.58
2023-02-17T01:16:19.593Z,1012.62
2023-02-17T01:17:19.717Z,1012.52
2023-02-17T01:18:19.839Z,1012.53
2023-02-17T01:19:19.980Z,1012.52
2023-02-17T01:20:20.077Z,1012.47
2023-02-17T01:21:20.292Z,1012.50
2023-02-17T01:22:20.360Z,1012.45
2023-02-17T01:23:20.544Z,1012.47
2023-02-17T01:24:20.605Z,1012.52
2023-02-17T01:25:20.750Z,1012.44
2023-02-17T01:26:20.868Z,1012.43
2023-02-17T01:27:21.052Z,1012.45
2023-02-17T01:28:21.100Z,1012.47
2023-02-17T01:29:21.254Z,1012.47
2023-02-17T01:30:21.498Z,1012.43
2023-02-17T01:31:21.593Z,1012.43
2023-02-17T01:32:21.664Z,1012.44
2023-02-17T01:33:21.768Z,1012.43
2023-02-17T01:34:21.890Z,1012.46
2023-02-17T01:35:22.068Z,1012.40
2023-02-17T01:36:22.189Z,1012.39
2023-02-17T01:37:22.334Z,1012.43
2023-02-17T01:38:22.456Z,1012.48
2023-02-17T01:39:22.596Z,1012.43
2023-02-17T01:40:22.751Z,1012.47
2023-02-17T01:41:22.911Z,1012.40
2023-02-17T01:42:22.995Z,1012.45
2023-02-17T01:43:23.133Z,1012.35
2023-02-17T01:44:23.231Z,1012.44
2023-02-17T01:45:23.418Z,1012.42
2023-02-17T01:46:23.505Z,1012.47
2023-02-17T01:47:23.606Z,1012.37
2023-02-17T01:48:23.707Z,1012.31
2023-02-17T01:49:23.880Z,1012.32
2023-02-17T01:50:23.967Z,1012.32
2023-02-17T01:51:24.147Z,1012.36
2023-02-17T01:52:24.253Z,1012.34
2023-02-17T01:53:24.358Z,1012.31
2023-02-17T01:54:24.452Z,1012.30
2023-02-17T01:55:24.598Z,1012.40
2023-02-17T01:56:24.692Z,1012.35
2023-02-17T01:57:24.897Z,1012.37
2023-02-17T01:58:24.985Z,1012.31
2023-02-17T01:59:25.153Z,1012.28
2023-02-17T02:00:25.235Z,1012.35
2023-02-17T02:01:25.379Z,1012.27
2023-02-17T02:02:30.515Z,1012.37
2023-02-17T02:03:25.660Z,1012.37
2023-02-17T02:04:25.823Z,1012.32
2023-02-17T02:05:25.965Z,1012.27
2023-02-17T02:06:26.059Z,1012.27
2023-02-17T02:07:26.309Z,1012.28
2023-02-17T02:08:26.298Z,1012.33
2023-02-17T02:09:26.438Z,1012.30
2023-02-17T02:10:26.536Z,1012.26
2023-02-17T02:11:26.721Z,1012.27
2023-02-17T02:12:26.777Z,1012.28
2023-02-17T02:13:26.930Z,1012.27
2023-02-17T02:14:27.036Z,1012.31
2023-02-17T02:15:27.204Z,1012.32
2023-02-17T02:16:27.357Z,1012.27
2023-02-17T02:17:27.432Z,1012.30
2023-02-17T02:18:27.581Z,1012.17
2023-02-17T02:19:27.705Z,1012.23
2023-02-17T02:20:27.797Z,1012.20
2023-02-17T02:21:27.927Z,1012.11
2023-02-17T02:22:28.095Z,1012.14
2023-02-17T02:23:28.257Z,1012.12
2023-02-17T02:24:28.421Z,1012.02
2023-02-17T02:25:28.518Z,1012.05
2023-02-17T02:26:30.096Z,1012.08
2023-02-17T02:27:28.834Z,1012.05
2023-02-17T02:28:28.910Z,1011.96
2023-02-17T02:29:29.032Z,1011.90
2023-02-17T02:30:30.242Z,1012.00
2023-02-17T02:31:29.503Z,1011.93
2023-02-17T02:32:29.546Z,1011.79
2023-02-17T02:33:29.683Z,1011.79
2023-02-17T02:34:29.765Z,1011.71
2023-02-17T02:35:29.925Z,1011.69
2023-02-17T02:36:30.145Z,1011.72
2023-02-17T02:37:30.225Z,1011.57
2023-02-17T02:38:30.422Z,1011.54
2023-02-17T02:39:30.551Z,1011.43
2023-02-17T02:40:30.654Z,1011.46
2023-02-17T02:41:30.747Z,1011.52
2023-02-17T02:42:30.896Z,1011.52
2023-02-17T02:43:30.973Z,1011.46
2023-02-17T02:44:31.173Z,1011.46
2023-02-17T02:45:31.278Z,1011.46
2023-02-17T02:46:31.361Z,1011.51
2023-02-17T02:47:31.540Z,1011.53
2023-02-17T02:48:31.769Z,1011.50
2023-02-17T02:49:31.829Z,1011.56
2023-02-17T02:50:31.961Z,1011.61
2023-02-17T02:51:32.026Z,1011.42
2023-02-17T02:52:32.209Z,1011.58
2023-02-17T02:53:32.293Z,1011.56
2023-02-17T02:54:32.528Z,1011.64
2023-02-17T02:55:32.590Z,1011.59
2023-02-17T02:56:32.707Z,1011.64
2023-02-17T02:57:32.907Z,1011.62
2023-02-17T02:58:33.015Z,1011.71
2023-02-17T02:59:33.153Z,1011.72
2023-02-17T03:00:33.271Z,1011.75
2023-02-17T03:01:33.391Z,1011.69
2023-02-17T03:02:34.922Z,1011.86
2023-02-17T03:03:33.699Z,1011.91
2023-02-17T03:04:33.780Z,1011.89
2023-02-17T03:05:33.921Z,1011.92
2023-02-17T03:06:34.119Z,1011.93
2023-02-17T03:07:34.287Z,1011.83
2023-02-17T03:08:34.409Z,1011.80
2023-02-17T03:09:34.560Z,1011.71
2023-02-17T03:10:34.622Z,1011.74
2023-02-17T03:11:34.780Z,1011.60
2023-02-17T03:12:34.883Z,1011.66
2023-02-17T03:13:35.028Z,1011.65
2023-02-17T03:14:35.148Z,1011.64
2023-02-17T03:15:35.261Z,1011.65
2023-02-17T03:16:35.471Z,1011.58
2023-02-17T03:17:35.527Z,1011.60
2023-02-17T03:18:35.581Z,1011.64
2023-02-17T03:19:35.711Z,1011.61
2023-02-17T03:20:35.885Z,1011.72
2023-02-17T03:21:35.963Z,1011.67
2023-02-17T03:22:36.130Z,1011.66
2023-02-17T03:23:36.297Z,1011.60
2023-02-17T03:24:36.427Z,1011.63
2023-02-17T03:25:36.535Z,1011.60
2023-02-17T03:26:36.637Z,1011.62
2023-02-17T03:27:36.770Z,1011.63
2023-02-17T03:28:36.999Z,1011.63
2023-02-17T03:29:37.106Z,1011.61
2023-02-17T03:30:37.205Z,1011.65
2023-02-17T03:31:37.413Z,1011.72
2023-02-17T03:32:37.440Z,1011.68
2023-02-17T03:33:39.005Z,1011.72
2023-02-17T03:34:37.664Z,1011.73
2023-02-17T03:35:37.850Z,1011.71
2023-02-17T03:36:37.989Z,1011.81
2023-02-17T03:37:38.170Z,1011.74
2023-02-17T03:38:38.258Z,1011.67
2023-02-17T03:39:38.363Z,1011.71
2023-02-17T03:40:38.566Z,1011.76
2023-02-17T03:41:38.633Z,1011.64
2023-02-17T03:42:38.829Z,1011.75
2023-02-17T03:43:38.960Z,1011.64
2023-02-17T03:44:39.089Z,1011.60
2023-02-17T03:45:39.223Z,1011.61
2023-02-17T03:46:39.346Z,1011.63
2023-02-17T03:47:39.513Z,1011.68
2023-02-17T03:48:39.583Z,1011.63
2023-02-17T03:49:39.741Z,1011.66
2023-02-17T03:50:39.954Z,1011.66
2023-02-17T03:51:40.086Z,1011.58
2023-02-17T03:52:40.200Z,1011.60
2023-02-17T03:53:40.287Z,1011.58
2023-02-17T03:54:40.466Z,1011.61
2023-02-17T03:55:40.495Z,1011.61
2023-02-17T03:56:40.686Z,1011.59
2023-02-17T03:57:40.810Z,1011.53
2023-02-17T03:58:40.904Z,1011.63
2023-02-17T03:59:41.072Z,1011.62
2023-02-17T04:00:41.144Z,1011.69
2023-02-17T04:01:41.347Z,1011.64
2023-02-17T04:02:44.014Z,1011.67
2023-02-17T04:03:41.541Z,1011.71
2023-02-17T04:04:41.634Z,1011.72
2023-02-17T04:05:42.042Z,1011.73
2023-02-17T04:06:41.967Z,1011.68
2023-02-17T04:07:42.045Z,1011.74
2023-02-17T04:08:42.253Z,1011.72
2023-02-17T04:09:42.402Z,1011.61
2023-02-17T04:10:42.497Z,1011.60
2023-02-17T04:11:42.626Z,1011.64
2023-02-17T04:12:42.722Z,1011.56
2023-02-17T04:13:42.822Z,1011.52
2023-02-17T04:14:43.009Z,1011.44
2023-02-17T04:15:43.221Z,1011.46
2023-02-17T04:16:43.248Z,1011.54
2023-02-17T04:17:43.370Z,1011.49
2023-02-17T04:18:43.553Z,1011.44
2023-02-17T04:19:43.594Z,1011.33
2023-02-17T04:20:43.764Z,1011.39
2023-02-17T04:21:43.965Z,1011.49
2023-02-17T04:22:44.086Z,1011.49
2023-02-17T04:23:44.189Z,1011.48
2023-02-17T04:24:44.258Z,1011.52
2023-02-17T04:25:44.389Z,1011.45
2023-02-17T04:26:44.511Z,1011.51
2023-02-17T04:27:44.658Z,1011.40
2023-02-17T04:28:44.776Z,1011.52
2023-02-17T04:29:44.883Z,1011.40
2023-02-17T04:30:45.080Z,1011.37
2023-02-17T04:31:45.321Z,1011.37
2023-02-17T04:32:45.307Z,1011.36
2023-02-17T04:33:45.421Z,1011.35
2023-02-17T04:34:45.600Z,1011.34
2023-02-17T04:35:45.672Z,1011.40
2023-02-17T04:36:45.789Z,1011.35
2023-02-17T04:37:45.857Z,1011.34
2023-02-17T04:38:46.027Z,1011.51
2023-02-17T04:39:46.147Z,1011.38
2023-02-17T04:40:46.250Z,1011.35
2023-02-17T04:41:46.357Z,1011.35
2023-02-17T04:42:46.445Z,1011.34
2023-02-17T04:43:46.670Z,1011.36
2023-02-17T04:44:46.771Z,1011.37
2023-02-17T04:45:46.981Z,1011.32
2023-02-17T04:46:47.083Z,1011.35
2023-02-17T04:47:47.186Z,1011.31
2023-02-17T04:48:47.278Z,1011.34
2023-02-17T04:49:47.481Z,1011.40
2023-02-17T04:50:47.688Z,1011.36
2023-02-17T04:51:47.849Z,1011.40
2023-02-17T04:52:47.917Z,1011.35
2023-02-17T04:53:48.092Z,1011.40
2023-02-17T04:54:48.248Z,1011.44
2023-02-17T04:55:48.316Z,1011.37
2023-02-17T04:56:48.529Z,1011.47
2023-02-17T04:57:48.607Z,1011.48
2023-02-17T04:58:48.716Z,1011.52
2023-02-17T04:59:48.844Z,1011.51
2023-02-17T05:00:48.944Z,1011.43
2023-02-17T05:01:49.100Z,1011.36
2023-02-17T05:02:49.246Z,1011.29
2023-02-17T05:03:49.326Z,1011.30
2023-02-17T05:04:49.511Z,1011.32
2023-02-17T05:05:49.568Z,1011.35
2023-02-17T05:06:49.724Z,1011.40
2023-02-17T05:07:49.950Z,1011.42
2023-02-17T05:08:49.969Z,1011.40
2023-02-17T05:09:50.144Z,1011.46
2023-02-17T05:10:50.228Z,1011.45
2023-02-17T05:11:50.327Z,1011.36
2023-02-17T05:12:50.551Z,1011.40
2023-02-17T05:13:50.585Z,1011.33
2023-02-17T05:14:50.778Z,1011.28
2023-02-17T05:15:50.903Z,1011.28
2023-02-17T05:16:50.992Z,1011.33
2023-02-17T05:17:51.112Z,1011.23
2023-02-17T05:18:51.344Z,1011.35
2023-02-17T05:19:51.447Z,1011.23
2023-02-17T05:20:51.547Z,1011.23
2023-02-17T05:21:51.671Z,1011.24
2023-02-17T05:22:51.793Z,1011.25
2023-02-17T05:23:51.898Z,1011.21
2023-02-17T05:24:52.139Z,1011.12
2023-02-17T05:25:52.188Z,1011.07
2023-02-17T05:26:52.266Z,1011.14
2023-02-17T05:27:52.390Z,1011.08
2023-02-17T05:28:52.540Z,1011.10
2023-02-17T05:29:52.638Z,1011.13
2023-02-17T05:30:52.812Z,1011.03
2023-02-17T05:31:52.962Z,1011.09
2023-02-17T05:32:52.955Z,1011.18
2023-02-17T05:33:53.095Z,1011.19
2023-02-17T05:34:53.221Z,1011.20
2023-02-17T05:35:53.356Z,1011.14
2023-02-17T05:36:53.473Z,1011.14
2023-02-17T05:37:53.580Z,1011.05
2023-02-17T05:38:53.722Z,1011.04
2023-02-17T05:39:53.964Z,1011.04
2023-02-17T05:40:54.173Z,1011.01
2023-02-17T05:41:56.415Z,1011.07
2023-02-17T05:42:54.304Z,1011.01
2023-02-17T05:43:54.413Z,1011.17
2023-02-17T05:44:54.573Z,1011.04
2023-02-17T05:45:54.663Z,1011.08
2023-02-17T05:46:54.896Z,1011.05
2023-02-17T05:47:54.945Z,1011.02
2023-02-17T05:48:55.145Z,1011.05
2023-02-17T05:49:55.263Z,1010.99
2023-02-17T05:50:55.370Z,1010.84
2023-02-17T05:51:55.451Z,1010.82
2023-02-17T05:52:55.581Z,1010.80
2023-02-17T05:53:55.653Z,1010.83
2023-02-17T05:54:55.877Z,1010.81
2023-02-17T05:55:56.004Z,1010.77
2023-02-17T05:56:56.118Z,1010.81
2023-02-17T05:57:56.256Z,1010.82
2023-02-17T05:58:56.386Z,1010.85
2023-02-17T05:59:56.511Z,1010.82
2023-02-17T06:00:56.641Z,1010.84
2023-02-17T06:01:56.752Z,1010.86
2023-02-17T06:02:56.954Z,1010.74
2023-02-17T06:03:57.093Z,1010.80
2023-02-17T06:04:57.264Z,1010.78
2023-02-17T06:05:57.361Z,1010.76
2023-02-17T06:06:57.427Z,1010.93
2023-02-17T06:07:57.526Z,1010.94
2023-02-17T06:08:57.634Z,1010.84
2023-02-17T06:09:57.749Z,1010.90
2023-02-17T06:10:57.927Z,1010.82
2023-02-17T06:11:58.059Z,1010.97
2023-02-17T06:12:58.167Z,1011.03
2023-02-17T06:13:58.305Z,1011.09
2023-02-17T06:14:58.404Z,1011.09
2023-02-17T06:15:58.635Z,1011.08
2023-02-17T06:17:00.951Z,1011.09
2023-02-17T06:17:58.826Z,1011.07
2023-02-17T06:18:58.969Z,1011.10
2023-02-17T06:19:59.143Z,1011.08
2023-02-17T06:20:59.296Z,1010.93
2023-02-17T06:21:59.460Z,1011.00
2023-02-17T06:22:59.497Z,1010.81
2023-02-17T06:23:59.603Z,1010.87
2023-02-17T06:24:59.789Z,1010.85
2023-02-17T06:25:59.921Z,1010.94
2023-02-17T06:27:00.019Z,1010.88
2023-02-17T06:28:00.169Z,1011.02
2023-02-17T06:29:00.282Z,1010.92
2023-02-17T06:30:00.438Z,1011.02
2023-02-17T06:31:00.604Z,1010.98
2023-02-17T06:32:00.721Z,1011.00
2023-02-17T06:33:00.920Z,1010.94
2023-02-17T06:34:00.955Z,1010.88
2023-02-17T06:35:01.113Z,1010.85
2023-02-17T06:36:01.226Z,1010.88
2023-02-17T06:37:01.422Z,1010.86
2023-02-17T06:38:01.627Z,1010.89
2023-02-17T06:39:01.657Z,1010.93
2023-02-17T06:40:01.783Z,1010.86
2023-02-17T06:41:01.869Z,1010.90
2023-02-17T06:42:02.011Z,1010.95
2023-02-17T06:43:02.238Z,1010.93
2023-02-17T06:44:02.265Z,1010.84
2023-02-17T06:45:02.413Z,1010.89
2023-02-17T06:46:02.570Z,1010.78
2023-02-17T06:47:02.628Z,1010.79
2023-02-17T06:48:02.760Z,1010.84
2023-02-17T06:49:02.924Z,1010.83
2023-02-17T06:50:03.070Z,1010.80
2023-02-17T06:51:03.219Z,1010.83
2023-02-17T06:52:03.348Z,1010.88
2023-02-17T06:53:03.521Z,1010.95
2023-02-17T06:54:03.740Z,1010.95
2023-02-17T06:55:03.856Z,1011.02
2023-02-17T06:56:04.453Z,1010.99
2023-02-17T06:57:04.092Z,1010.97
2023-02-17T06:58:04.237Z,1011.03
2023-02-17T06:59:04.416Z,1011.06
2023-02-17T07:00:04.515Z,1011.02
2023-02-17T07:01:04.611Z,1011.04
2023-02-17T07:02:04.867Z,1010.96
2023-02-17T07:03:04.974Z,1010.97
2023-02-17T07:04:04.990Z,1010.90
2023-02-17T07:05:05.093Z,1010.98
2023-02-17T07:06:05.739Z,1011.00
2023-02-17T07:07:05.360Z,1010.99
2023-02-17T07:08:05.519Z,1010.96
2023-02-17T07:09:05.590Z,1011.01
2023-02-17T07:10:05.710Z,1011.00
2023-02-17T07:11:05.825Z,1010.94
2023-02-17T07:12:05.991Z,1010.97
2023-02-17T07:13:06.091Z,1010.95
2023-02-17T07:14:06.263Z,1011.04
2023-02-17T07:15:06.346Z,1010.97
2023-02-17T07:16:06.821Z,1010.90
2023-02-17T07:17:06.632Z,1010.91
2023-02-17T07:18:06.801Z,1010.95
2023-02-17T07:19:06.879Z,1011.03
2023-02-17T07:20:07.071Z,1011.03
2023-02-17T07:21:07.179Z,1011.00
2023-02-17T07:22:07.314Z,1011.04
2023-02-17T07:23:07.404Z,1011.01
2023-02-17T07:24:07.582Z,1010.99
2023-02-17T07:25:07.660Z,1010.95
2023-02-17T07:26:08.063Z,1010.98
2023-02-17T07:27:10.559Z,1011.03
2023-02-17T07:28:08.050Z,1010.93
2023-02-17T07:29:08.201Z,1010.99
2023-02-17T07:30:08.377Z,1011.01
2023-02-17T07:31:08.462Z,1011.05
2023-02-17T07:32:08.642Z,1010.94
2023-02-17T07:33:08.715Z,1010.98
2023-02-17T07:34:08.870Z,1011.01
2023-02-17T07:35:09.007Z,1010.88
2023-02-17T07:36:09.116Z,1010.91
2023-02-17T07:37:09.208Z,1010.98
2023-02-17T07:38:09.348Z,1010.96
2023-02-17T07:39:09.443Z,1010.99
2023-02-17T07:40:09.598Z,1010.91
2023-02-17T07:41:09.808Z,1010.98
2023-02-17T07:42:09.860Z,1010.89
2023-02-17T07:43:09.948Z,1010.91
2023-02-17T07:44:10.143Z,1010.87
2023-02-17T07:45:10.228Z,1010.91
2023-02-17T07:46:10.631Z,1010.95
2023-02-17T07:47:10.428Z,1010.87
2023-02-17T07:48:10.576Z,1010.85
2023-02-17T07:49:10.676Z,1010.82
2023-02-17T07:50:10.854Z,1010.96
2023-02-17T07:51:10.945Z,1010.77
2023-02-17T07:52:11.115Z,1010.85
2023-02-17T07:53:11.184Z,1010.79
2023-02-17T07:54:11.335Z,1010.93
2023-02-17T07:55:11.436Z,1010.83
2023-02-17T07:56:11.605Z,1010.75
2023-02-17T07:57:11.681Z,1010.72
2023-02-17T07:58:11.855Z,1010.71
2023-02-17T07:59:11.962Z,1010.76
2023-02-17T08:00:12.069Z,1010.77
2023-02-17T08:01:12.157Z,1010.80
2023-02-17T08:02:12.389Z,1010.73
2023-02-17T08:03:12.447Z,1010.71
2023-02-17T08:04:12.665Z,1010.73
2023-02-17T08:05:12.737Z,1010.69
2023-02-17T08:06:12.846Z,1010.69
2023-02-17T08:07:12.997Z,1010.63
2023-02-17T08:08:13.124Z,1010.66
2023-02-17T08:09:13.272Z,1010.61
2023-02-17T08:10:13.598Z,1010.68
2023-02-17T08:11:13.503Z,1010.73
2023-02-17T08:12:13.622Z,1010.69
2023-02-17T08:13:13.729Z,1010.74
2023-02-17T08:14:13.900Z,1010.70
2023-02-17T08:15:13.971Z,1010.76
2023-02-17T08:16:14.154Z,1010.76
2023-02-17T08:17:14.253Z,1010.73
2023-02-17T08:18:14.376Z,1010.75
2023-02-17T08:19:14.501Z,1010.75
2023-02-17T08:20:14.584Z,1010.71
2023-02-17T08:21:14.803Z,1010.69
2023-02-17T08:22:14.891Z,1010.70
2023-02-17T08:23:14.974Z,1010.70
2023-02-17T08:24:15.128Z,1010.63
2023-02-17T08:25:15.224Z,1010.70
2023-02-17T08:26:15.411Z,1010.72
2023-02-17T08:27:15.572Z,1010.73
2023-02-17T08:28:15.651Z,1010.83
2023-02-17T08:29:15.895Z,1010.97
2023-02-17T08:30:16.143Z,1010.63
2023-02-17T08:31:16.242Z,1010.72
2023-02-17T08:32:16.293Z,1010.57
2023-02-17T08:33:16.389Z,1010.69
2023-02-17T08:34:16.423Z,1010.65
2023-02-17T08:35:16.604Z,1010.78
2023-02-17T08:36:16.712Z,1010.81
2023-02-17T08:37:16.823Z,1010.83
2023-02-17T08:38:16.940Z,1010.87
2023-02-17T08:39:17.218Z,1010.88
2023-02-17T08:40:17.221Z,1010.86
2023-02-17T08:41:17.311Z,1010.86
2023-02-17T08:42:17.424Z,1010.88
2023-02-17T08:43:17.533Z,1010.75
2023-02-17T08:44:17.693Z,1010.85
2023-02-17T08:45:17.775Z,1010.83
2023-02-17T08:46:17.982Z,1010.76
2023-02-17T08:47:18.086Z,1010.69
2023-02-17T08:48:18.172Z,1010.69
2023-02-17T08:49:18.284Z,1010.65
2023-02-17T08:50:18.423Z,1010.77
2023-02-17T08:51:18.603Z,1010.65
2023-02-17T08:52:18.775Z,1010.64
2023-02-17T08:53:18.892Z,1010.64
2023-02-17T08:54:19.015Z,1010.60
2023-02-17T08:55:19.145Z,1010.68
2023-02-17T08:56:19.268Z,1010.60
2023-02-17T08:57:19.338Z,1010.64
2023-02-17T08:58:19.546Z,1010.69
2023-02-17T08:59:19.609Z,1010.69
2023-02-17T09:00:19.780Z,1010.73
2023-02-17T09:01:19.896Z,1010.78
2023-02-17T09:02:20.034Z,1010.68
2023-02-17T09:03:20.266Z,1010.80
2023-02-17T09:04:20.344Z,1010.69
2023-02-17T09:05:20.424Z,1010.69
2023-02-17T09:06:20.593Z,1010.73
2023-02-17T09:07:20.630Z,1010.77
2023-02-17T09:08:20.788Z,1010.70
2023-02-17T09:09:20.864Z,1010.83
2023-02-17T09:10:21.012Z,1010.87
2023-02-17T09:11:21.136Z,1011.00
2023-02-17T09:12:21.245Z,1010.85
2023-02-17T09:13:21.371Z,1010.88
2023-02-17T09:14:21.509Z,1010.83
2023-02-17T09:15:21.630Z,1011.00
2023-02-17T09:16:21.828Z,1010.85
2023-02-17T09:17:21.871Z,1010.73
2023-02-17T09:18:22.038Z,1010.80
2023-02-17T09:19:22.133Z,1010.78
2023-02-17T09:20:25.022Z,1010.78
2023-02-17T09:21:22.369Z,1010.89
2023-02-17T09:22:31.519Z,1010.80
2023-02-17T09:23:23.686Z,1010.81
2023-02-17T09:24:22.780Z,1010.76
2023-02-17T09:25:22.850Z,1010.82
2023-02-17T09:26:23.090Z,1010.81
2023-02-17T09:27:23.164Z,1010.83
2023-02-17T09:28:23.272Z,1010.86
2023-02-17T09:29:23.366Z,1010.77
2023-02-17T09:30:23.564Z,1010.91
2023-02-17T09:31:23.657Z,1010.89
2023-02-17T09:32:23.797Z,1010.96
2023-02-17T09:33:25.736Z,1011.11
2023-02-17T09:34:24.022Z,1011.06
2023-02-17T09:35:24.129Z,1011.07
2023-02-17T09:36:24.215Z,1011.08
2023-02-17T09:37:24.332Z,1011.06
2023-02-17T09:38:24.495Z,1011.06
2023-02-17T09:39:24.590Z,1011.06
2023-02-17T09:40:24.760Z,1011.17
2023-02-17T09:41:24.848Z,1011.15
2023-02-17T09:42:25.042Z,1011.24
2023-02-17T09:43:25.122Z,1011.17
2023-02-17T09:44:25.255Z,1011.14
2023-02-17T09:45:25.340Z,1011.13
2023-02-17T09:46:25.500Z,1011.11
2023-02-17T09:47:25.666Z,1011.14
2023-02-17T09:48:25.719Z,1011.14
2023-02-17T09:49:25.870Z,1011.10
2023-02-17T09:50:25.955Z,1011.20
2023-02-17T09:51:26.085Z,1011.24
2023-02-17T09:52:26.181Z,1011.39
2023-02-17T09:53:26.359Z,1011.28
2023-02-17T09:54:26.471Z,1011.30
2023-02-17T09:55:26.550Z,1011.31
2023-02-17T09:56:26.720Z,1011.25
2023-02-17T09:57:26.859Z,1011.36
2023-02-17T09:58:27.014Z,1011.26
2023-02-17T09:59:27.137Z,1011.26
2023-02-17T10:00:27.248Z,1011.16
2023-02-17T10:01:27.350Z,1011.26
2023-02-17T10:02:27.466Z,1011.38
2023-02-17T10:03:27.668Z,1011.13
2023-02-17T10:04:27.922Z,1011.17
2023-02-17T10:05:27.931Z,1011.12
2023-02-17T10:06:27.964Z,1011.10
2023-02-17T10:07:28.018Z,1011.12
2023-02-17T10:08:28.155Z,1011.14
2023-02-17T10:09:28.252Z,1011.23
2023-02-17T10:10:28.395Z,1011.14
2023-02-17T10:11:28.517Z,1011.28
2023-02-17T10:12:28.691Z,1011.30
2023-02-17T10:13:28.735Z,1011.36
2023-02-17T10:14:28.942Z,1011.26
2023-02-17T10:15:29.060Z,1011.23
2023-02-17T10:16:29.218Z,1011.23
2023-02-17T10:17:29.259Z,1011.30
2023-02-17T10:18:29.460Z,1011.24
2023-02-17T10:19:29.578Z,1011.14
2023-02-17T10:20:29.723Z,1011.09
2023-02-17T10:21:29.859Z,1011.07
2023-02-17T10:22:30.021Z,1011.12
2023-02-17T10:23:30.033Z,1011.03
2023-02-17T10:24:30.153Z,1011.15
2023-02-17T10:25:30.323Z,1011.06
2023-02-17T10:26:30.418Z,1011.15
2023-02-17T10:27:30.509Z,1011.04
2023-02-17T10:28:30.652Z,1010.94
2023-02-17T10:29:30.758Z,1011.05
2023-02-17T10:30:30.966Z,1011.04
2023-02-17T10:31:31.095Z,1010.99
2023-02-17T10:32:31.306Z,1010.73
2023-02-17T10:33:31.299Z,1010.78
2023-02-17T10:34:31.468Z,1010.69
2023-02-17T10:35:31.504Z,1010.53
2023-02-17T10:36:31.657Z,1010.58
2023-02-17T10:37:31.784Z,1010.62
2023-02-17T10:38:31.853Z,1010.68
2023-02-17T10:39:32.004Z,1010.59
2023-02-17T10:40:32.115Z,1010.35
2023-02-17T10:41:32.319Z,1010.44
2023-02-17T10:42:32.397Z,1010.45
2023-02-17T10:43:32.474Z,1010.46
2023-02-17T10:44:32.664Z,1010.45
2023-02-17T10:45:32.736Z,1010.53
2023-02-17T10:46:32.919Z,1010.56
2023-02-17T10:47:33.043Z,1010.52
2023-02-17T10:48:33.127Z,1010.57
2023-02-17T10:49:33.234Z,1010.57
2023-02-17T10:50:33.384Z,1010.60
2023-02-17T10:51:33.482Z,1010.62
2023-02-17T10:52:33.654Z,1010.70
2023-02-17T10:53:33.739Z,1010.64
2023-02-17T10:54:33.857Z,1010.88
2023-02-17T10:55:33.954Z,1010.71
2023-02-17T10:56:34.107Z,1010.67
2023-02-17T10:57:34.232Z,1010.61
2023-02-17T10:58:34.351Z,1010.66
2023-02-17T10:59:34.426Z,1010.63
2023-02-17T11:00:34.685Z,1010.67
2023-02-17T11:01:34.781Z,1010.59
2023-02-17T11:02:34.906Z,1010.63
2023-02-17T11:03:35.012Z,1010.63
2023-02-17T11:04:35.095Z,1010.62
2023-02-17T11:05:35.244Z,1010.71
2023-02-17T11:06:35.357Z,1010.62
2023-02-17T11:07:35.487Z,1010.66
2023-02-17T11:08:35.591Z,1010.63
2023-02-17T11:09:35.686Z,1010.72
2023-02-17T11:10:35.844Z,1010.61
2023-02-17T11:11:35.961Z,1010.52
2023-02-17T11:12:36.053Z,1010.63
2023-02-17T11:13:36.185Z,1010.53
2023-02-17T11:14:36.265Z,1010.51
2023-02-17T11:15:36.421Z,1010.62
2023-02-17T11:16:36.568Z,1010.54
2023-02-17T11:17:36.645Z,1010.74
2023-02-17T11:18:36.758Z,1010.71
2023-02-17T11:19:36.900Z,1010.67
2023-02-17T11:20:37.035Z,1010.74
2023-02-17T11:21:37.193Z,1010.66
2023-02-17T11:22:37.254Z,1010.87
2023-02-17T11:23:37.405Z,1010.60
2023-02-17T11:24:37.515Z,1010.62
2023-02-17T11:25:37.621Z,1010.63
2023-02-17T11:26:37.760Z,1010.66
2023-02-17T11:27:37.850Z,1010.74
2023-02-17T11:28:37.959Z,1010.72
2023-02-17T11:29:38.167Z,1010.62
2023-02-17T11:30:38.276Z,1010.64
2023-02-17T11:31:38.797Z,1010.63
2023-02-17T11:32:38.509Z,1010.67
2023-02-17T11:33:38.609Z,1010.63
2023-02-17T11:34:38.704Z,1010.66
2023-02-17T11:35:38.852Z,1010.51
2023-02-17T11:36:39.499Z,1010.53
2023-02-17T11:37:39.079Z,1010.67
2023-02-17T11:38:39.200Z,1010.58
2023-02-17T11:39:39.334Z,1010.63
2023-02-17T11:40:39.408Z,1010.76
2023-02-17T11:41:39.572Z,1010.65
2023-02-17T11:42:39.694Z,1010.81
2023-02-17T11:43:39.800Z,1010.60
2023-02-17T11:44:39.879Z,1010.51
2023-02-17T11:45:40.072Z,1010.63
2023-02-17T11:46:40.199Z,1010.44
2023-02-17T11:47:40.290Z,1010.44
2023-02-17T11:48:40.396Z,1010.55
2023-02-17T11:49:40.570Z,1010.40
2023-02-17T11:50:42.123Z,1010.37
2023-02-17T11:51:40.780Z,1010.23
2023-02-17T11:52:40.871Z,1010.39
2023-02-17T11:53:41.020Z,1010.31
2023-02-17T11:54:41.121Z,1010.30
2023-02-17T11:55:41.260Z,1010.33
2023-02-17T11:56:41.433Z,1010.35
2023-02-17T11:57:42.808Z,1010.22
2023-02-17T11:58:41.668Z,1010.22
2023-02-17T11:59:41.766Z,1010.18
2023-02-17T12:00:41.913Z,1010.17
2023-02-17T12:01:42.011Z,1010.31
2023-02-17T12:02:42.099Z,1010.46
2023-02-17T12:03:42.244Z,1010.23
2023-02-17T12:04:42.410Z,1010.36
2023-02-17T12:05:42.507Z,1010.28
2023-02-17T12:06:42.622Z,1010.41